sensor_id;sensor_type;location;lat;lon;timestamp;P1;durP1;ratioP1;P2;durP2;ratioP2
66095;SDS011;53861;53.422;14.530;2023-03-14T00:01:44;10.70;;;4.75;;
66095;SDS011;53861;53.422;14.530;2023-03-14T00:04:11;10.95;;;4.32;;
66095;SDS011;53861;53.422;14.530;2023-03-14T00:06:39;9.85;;;4.75;;
66095;SDS011;53861;53.422;14.530;2023-03-14T00:09:06;9.18;;;4.90;;
66095;SDS011;53861;53.422;14.530;2023-03-14T00:11:33;9.70;;;4.20;;
66095;SDS011;53861;53.422;14.530;2023-03-14T00:14:01;10.93;;;4.63;;
66095;SDS011;53861;53.422;14.530;2023-03-14T00:16:30;9.10;;;4.53;;
66095;SDS011;53861;53.422;14.530;2023-03-14T00:18:57;10.00;;;4.60;;
66095;SDS011;53861;53.422;14.530;2023-03-14T00:21:25;9.40;;;4.65;;
66095;SDS011;53861;53.422;14.530;2023-03-14T00:23:52;12.20;;;4.82;;
66095;SDS011;53861;53.422;14.530;2023-03-14T00:26:20;11.65;;;4.43;;
66095;SDS011;53861;53.422;14.530;2023-03-14T00:28:51;10.35;;;5.00;;
66095;SDS011;53861;53.422;14.530;2023-03-14T00:31:19;11.50;;;4.43;;
66095;SDS011;53861;53.422;14.530;2023-03-14T00:33:48;12.23;;;5.15;;
66095;SDS011;53861;53.422;14.530;2023-03-14T00:36:15;10.05;;;4.70;;
66095;SDS011;53861;53.422;14.530;2023-03-14T00:38:44;13.80;;;5.00;;
66095;SDS011;53861;53.422;14.530;2023-03-14T00:41:13;10.65;;;4.95;;
66095;SDS011;53861;53.422;14.530;2023-03-14T00:43:42;12.23;;;4.85;;
66095;SDS011;53861;53.422;14.530;2023-03-14T00:46:10;9.25;;;4.43;;
66095;SDS011;53861;53.422;14.530;2023-03-14T00:48:37;13.90;;;5.22;;
66095;SDS011;53861;53.422;14.530;2023-03-14T00:51:07;9.57;;;4.45;;
66095;SDS011;53861;53.422;14.530;2023-03-14T00:53:37;14.07;;;5.30;;
66095;SDS011;53861;53.422;14.530;2023-03-14T00:56:06;11.77;;;4.93;;
66095;SDS011;53861;53.422;14.530;2023-03-14T00:58:35;10.60;;;4.85;;
66095;SDS011;53861;53.422;14.530;2023-03-14T01:01:05;11.60;;;4.97;;
66095;SDS011;53861;53.422;14.530;2023-03-14T01:03:33;11.73;;;4.90;;
66095;SDS011;53861;53.422;14.530;2023-03-14T01:06:09;11.15;;;4.43;;
66095;SDS011;53861;53.422;14.530;2023-03-14T01:08:38;11.10;;;4.30;;
66095;SDS011;53861;53.422;14.530;2023-03-14T01:11:06;8.30;;;3.88;;
66095;SDS011;53861;53.422;14.530;2023-03-14T01:13:35;18.92;;;4.53;;
66095;SDS011;53861;53.422;14.530;2023-03-14T01:16:02;9.65;;;3.88;;
66095;SDS011;53861;53.422;14.530;2023-03-14T01:18:32;10.85;;;4.00;;
66095;SDS011;53861;53.422;14.530;2023-03-14T01:21:01;11.05;;;4.00;;
66095;SDS011;53861;53.422;14.530;2023-03-14T01:23:30;9.23;;;3.85;;
66095;SDS011;53861;53.422;14.530;2023-03-14T01:25:57;10.95;;;3.80;;
66095;SDS011;53861;53.422;14.530;2023-03-14T01:28:24;8.70;;;3.70;;
66095;SDS011;53861;53.422;14.530;2023-03-14T01:30:51;9.70;;;3.63;;
66095;SDS011;53861;53.422;14.530;2023-03-14T01:33:19;9.38;;;4.00;;
66095;SDS011;53861;53.422;14.530;2023-03-14T01:35:49;8.30;;;3.55;;
66095;SDS011;53861;53.422;14.530;2023-03-14T01:38:16;7.85;;;3.50;;
66095;SDS011;53861;53.422;14.530;2023-03-14T01:40:45;9.55;;;3.53;;
66095;SDS011;53861;53.422;14.530;2023-03-14T01:43:13;7.03;;;2.72;;
66095;SDS011;53861;53.422;14.530;2023-03-14T01:48:47;11.20;;;2.92;;
66095;SDS011;53861;53.422;14.530;2023-03-14T01:51:20;6.50;;;3.00;;
66095;SDS011;53861;53.422;14.530;2023-03-14T01:53:50;6.28;;;2.63;;
66095;SDS011;53861;53.422;14.530;2023-03-14T01:56:21;7.07;;;2.90;;
66095;SDS011;53861;53.422;14.530;2023-03-14T01:58:50;9.68;;;2.92;;
66095;SDS011;53861;53.422;14.530;2023-03-14T02:01:19;9.02;;;2.85;;
66095;SDS011;53861;53.422;14.530;2023-03-14T02:03:50;5.97;;;2.53;;
66095;SDS011;53861;53.422;14.530;2023-03-14T02:06:21;6.10;;;2.55;;
66095;SDS011;53861;53.422;14.530;2023-03-14T02:08:51;5.75;;;2.50;;
66095;SDS011;53861;53.422;14.530;2023-03-14T02:11:18;5.07;;;2.05;;
66095;SDS011;53861;53.422;14.530;2023-03-14T02:13:47;8.90;;;2.03;;
66095;SDS011;53861;53.422;14.530;2023-03-14T02:16:15;6.15;;;2.40;;
66095;SDS011;53861;53.422;14.530;2023-03-14T02:18:42;4.40;;;2.00;;
66095;SDS011;53861;53.422;14.530;2023-03-14T02:21:12;3.97;;;1.70;;
66095;SDS011;53861;53.422;14.530;2023-03-14T02:23:43;4.68;;;1.90;;
66095;SDS011;53861;53.422;14.530;2023-03-14T02:26:23;6.50;;;2.33;;
66095;SDS011;53861;53.422;14.530;2023-03-14T02:28:55;4.63;;;2.03;;
66095;SDS011;53861;53.422;14.530;2023-03-14T02:31:23;5.65;;;1.92;;
66095;SDS011;53861;53.422;14.530;2023-03-14T02:33:50;4.30;;;1.77;;
66095;SDS011;53861;53.422;14.530;2023-03-14T02:36:18;5.13;;;1.80;;
66095;SDS011;53861;53.422;14.530;2023-03-14T02:38:47;3.95;;;1.80;;
66095;SDS011;53861;53.422;14.530;2023-03-14T02:41:20;6.20;;;2.03;;
66095;SDS011;53861;53.422;14.530;2023-03-14T02:43:47;5.78;;;1.90;;
66095;SDS011;53861;53.422;14.530;2023-03-14T02:46:16;5.07;;;2.13;;
66095;SDS011;53861;53.422;14.530;2023-03-14T02:48:52;5.20;;;1.98;;
66095;SDS011;53861;53.422;14.530;2023-03-14T02:51:22;4.63;;;1.83;;
66095;SDS011;53861;53.422;14.530;2023-03-14T02:53:52;4.03;;;1.52;;
66095;SDS011;53861;53.422;14.530;2023-03-14T02:56:20;6.10;;;1.90;;
66095;SDS011;53861;53.422;14.530;2023-03-14T02:58:47;5.15;;;1.95;;
66095;SDS011;53861;53.422;14.530;2023-03-14T03:01:16;5.35;;;1.92;;
66095;SDS011;53861;53.422;14.530;2023-03-14T03:03:43;5.03;;;1.95;;
66095;SDS011;53861;53.422;14.530;2023-03-14T03:06:10;5.00;;;2.08;;
66095;SDS011;53861;53.422;14.530;2023-03-14T03:08:38;6.57;;;2.15;;
66095;SDS011;53861;53.422;14.530;2023-03-14T03:11:05;7.85;;;2.22;;
66095;SDS011;53861;53.422;14.530;2023-03-14T03:13:33;5.10;;;2.00;;
66095;SDS011;53861;53.422;14.530;2023-03-14T03:16:00;6.35;;;2.10;;
66095;SDS011;53861;53.422;14.530;2023-03-14T03:18:29;4.88;;;1.98;;
66095;SDS011;53861;53.422;14.530;2023-03-14T03:20:59;6.70;;;2.00;;
66095;SDS011;53861;53.422;14.530;2023-03-14T03:23:27;7.20;;;2.10;;
66095;SDS011;53861;53.422;14.530;2023-03-14T03:25:54;5.13;;;2.20;;
66095;SDS011;53861;53.422;14.530;2023-03-14T03:28:23;5.95;;;2.03;;
66095;SDS011;53861;53.422;14.530;2023-03-14T03:30:50;5.30;;;2.15;;
66095;SDS011;53861;53.422;14.530;2023-03-14T03:33:18;4.70;;;2.13;;
66095;SDS011;53861;53.422;14.530;2023-03-14T03:35:47;5.28;;;2.20;;
66095;SDS011;53861;53.422;14.530;2023-03-14T03:38:16;5.95;;;2.00;;
66095;SDS011;53861;53.422;14.530;2023-03-14T03:40:45;4.57;;;1.92;;
66095;SDS011;53861;53.422;14.530;2023-03-14T03:43:12;6.18;;;2.00;;
66095;SDS011;53861;53.422;14.530;2023-03-14T03:45:40;6.63;;;2.17;;
66095;SDS011;53861;53.422;14.530;2023-03-14T03:48:07;5.68;;;2.03;;
66095;SDS011;53861;53.422;14.530;2023-03-14T03:50:35;5.15;;;1.95;;
66095;SDS011;53861;53.422;14.530;2023-03-14T03:53:13;5.03;;;2.10;;
66095;SDS011;53861;53.422;14.530;2023-03-14T03:55:43;6.78;;;1.95;;
66095;SDS011;53861;53.422;14.530;2023-03-14T03:58:10;5.78;;;1.98;;
66095;SDS011;53861;53.422;14.530;2023-03-14T04:00:37;4.25;;;1.75;;
66095;SDS011;53861;53.422;14.530;2023-03-14T04:03:05;5.13;;;2.20;;
66095;SDS011;53861;53.422;14.530;2023-03-14T04:05:32;6.00;;;1.98;;
66095;SDS011;53861;53.422;14.530;2023-03-14T04:08:00;7.03;;;2.28;;
66095;SDS011;53861;53.422;14.530;2023-03-14T04:10:29;4.82;;;1.73;;
66095;SDS011;53861;53.422;14.530;2023-03-14T04:12:56;4.28;;;1.52;;
66095;SDS011;53861;53.422;14.530;2023-03-14T04:15:24;6.95;;;2.20;;
66095;SDS011;53861;53.422;14.530;2023-03-14T04:17:51;3.42;;;1.50;;
66095;SDS011;53861;53.422;14.530;2023-03-14T04:20:23;3.97;;;1.80;;
66095;SDS011;53861;53.422;14.530;2023-03-14T04:22:50;4.97;;;1.80;;
66095;SDS011;53861;53.422;14.530;2023-03-14T04:25:17;4.47;;;1.90;;
66095;SDS011;53861;53.422;14.530;2023-03-14T04:27:47;4.88;;;1.73;;
66095;SDS011;53861;53.422;14.530;2023-03-14T04:30:14;4.53;;;1.60;;
66095;SDS011;53861;53.422;14.530;2023-03-14T04:32:42;4.47;;;1.80;;
66095;SDS011;53861;53.422;14.530;2023-03-14T04:35:09;5.10;;;1.80;;
66095;SDS011;53861;53.422;14.530;2023-03-14T04:37:36;4.68;;;1.73;;
66095;SDS011;53861;53.422;14.530;2023-03-14T04:40:04;6.00;;;1.70;;
66095;SDS011;53861;53.422;14.530;2023-03-14T04:42:32;6.50;;;1.75;;
66095;SDS011;53861;53.422;14.530;2023-03-14T04:45:01;5.20;;;1.77;;
66095;SDS011;53861;53.422;14.530;2023-03-14T04:47:28;5.30;;;1.65;;
66095;SDS011;53861;53.422;14.530;2023-03-14T04:49:56;3.80;;;1.70;;
66095;SDS011;53861;53.422;14.530;2023-03-14T04:52:23;5.10;;;1.73;;
66095;SDS011;53861;53.422;14.530;2023-03-14T04:54:50;6.35;;;1.70;;
66095;SDS011;53861;53.422;14.530;2023-03-14T04:57:17;3.90;;;1.60;;
66095;SDS011;53861;53.422;14.530;2023-03-14T04:59:45;4.72;;;1.85;;
66095;SDS011;53861;53.422;14.530;2023-03-14T05:02:13;4.25;;;1.77;;
66095;SDS011;53861;53.422;14.530;2023-03-14T05:04:41;4.53;;;1.77;;
66095;SDS011;53861;53.422;14.530;2023-03-14T05:07:08;5.53;;;2.28;;
66095;SDS011;53861;53.422;14.530;2023-03-14T05:09:35;4.18;;;2.00;;
66095;SDS011;53861;53.422;14.530;2023-03-14T05:12:03;3.50;;;1.77;;
66095;SDS011;53861;53.422;14.530;2023-03-14T05:14:30;6.07;;;1.73;;
66095;SDS011;53861;53.422;14.530;2023-03-14T05:16:57;7.15;;;1.77;;
66095;SDS011;53861;53.422;14.530;2023-03-14T05:19:26;4.70;;;1.98;;
66095;SDS011;53861;53.422;14.530;2023-03-14T05:21:53;9.27;;;4.75;;
66095;SDS011;53861;53.422;14.530;2023-03-14T05:24:20;9.77;;;2.20;;
66095;SDS011;53861;53.422;14.530;2023-03-14T05:26:49;6.28;;;2.03;;
66095;SDS011;53861;53.422;14.530;2023-03-14T05:29:16;8.13;;;1.88;;
66095;SDS011;53861;53.422;14.530;2023-03-14T05:31:43;4.85;;;1.85;;
66095;SDS011;53861;53.422;14.530;2023-03-14T05:34:11;6.90;;;2.00;;
66095;SDS011;53861;53.422;14.530;2023-03-14T05:36:39;6.68;;;2.00;;
66095;SDS011;53861;53.422;14.530;2023-03-14T05:39:06;5.70;;;2.28;;
66095;SDS011;53861;53.422;14.530;2023-03-14T05:41:34;4.57;;;2.00;;
66095;SDS011;53861;53.422;14.530;2023-03-14T05:44:01;6.53;;;2.10;;
66095;SDS011;53861;53.422;14.530;2023-03-14T05:46:28;7.22;;;2.67;;
66095;SDS011;53861;53.422;14.530;2023-03-14T05:48:56;5.60;;;2.30;;
66095;SDS011;53861;53.422;14.530;2023-03-14T05:51:23;4.43;;;1.90;;
66095;SDS011;53861;53.422;14.530;2023-03-14T05:53:52;5.75;;;2.00;;
66095;SDS011;53861;53.422;14.530;2023-03-14T05:56:19;8.15;;;2.00;;
66095;SDS011;53861;53.422;14.530;2023-03-14T05:58:47;5.10;;;2.25;;
66095;SDS011;53861;53.422;14.530;2023-03-14T06:01:14;5.07;;;2.20;;
66095;SDS011;53861;53.422;14.530;2023-03-14T06:03:41;5.50;;;2.08;;
66095;SDS011;53861;53.422;14.530;2023-03-14T06:06:09;9.02;;;3.40;;
66095;SDS011;53861;53.422;14.530;2023-03-14T06:08:36;6.80;;;2.40;;
66095;SDS011;53861;53.422;14.530;2023-03-14T06:11:05;6.03;;;2.17;;
66095;SDS011;53861;53.422;14.530;2023-03-14T06:13:32;6.70;;;2.60;;
66095;SDS011;53861;53.422;14.530;2023-03-14T06:16:00;9.95;;;2.83;;
66095;SDS011;53861;53.422;14.530;2023-03-14T06:18:28;6.18;;;2.55;;
66095;SDS011;53861;53.422;14.530;2023-03-14T06:20:56;8.93;;;2.60;;
66095;SDS011;53861;53.422;14.530;2023-03-14T06:23:23;6.57;;;2.60;;
66095;SDS011;53861;53.422;14.530;2023-03-14T06:25:51;6.35;;;2.63;;
66095;SDS011;53861;53.422;14.530;2023-03-14T06:28:20;7.50;;;2.30;;
66095;SDS011;53861;53.422;14.530;2023-03-14T06:30:47;5.95;;;2.30;;
66095;SDS011;53861;53.422;14.530;2023-03-14T06:33:14;9.10;;;2.95;;
66095;SDS011;53861;53.422;14.530;2023-03-14T06:35:41;7.00;;;2.67;;
66095;SDS011;53861;53.422;14.530;2023-03-14T06:38:12;6.53;;;2.33;;
66095;SDS011;53861;53.422;14.530;2023-03-14T06:40:39;7.15;;;2.33;;
66095;SDS011;53861;53.422;14.530;2023-03-14T06:43:06;4.18;;;2.03;;
66095;SDS011;53861;53.422;14.530;2023-03-14T06:45:35;5.68;;;2.00;;
66095;SDS011;53861;53.422;14.530;2023-03-14T06:48:05;7.80;;;2.28;;
66095;SDS011;53861;53.422;14.530;2023-03-14T06:50:32;4.18;;;2.10;;
66095;SDS011;53861;53.422;14.530;2023-03-14T06:53:00;4.45;;;1.90;;
66095;SDS011;53861;53.422;14.530;2023-03-14T06:55:27;7.47;;;2.20;;
66095;SDS011;53861;53.422;14.530;2023-03-14T06:57:55;9.50;;;1.90;;
66095;SDS011;53861;53.422;14.530;2023-03-14T07:00:22;6.25;;;1.77;;
66095;SDS011;53861;53.422;14.530;2023-03-14T07:02:51;4.90;;;2.15;;
66095;SDS011;53861;53.422;14.530;2023-03-14T07:05:19;7.93;;;2.03;;
66095;SDS011;53861;53.422;14.530;2023-03-14T07:07:46;4.35;;;1.80;;
66095;SDS011;53861;53.422;14.530;2023-03-14T07:10:13;4.43;;;1.73;;
66095;SDS011;53861;53.422;14.530;2023-03-14T07:12:40;5.80;;;1.90;;
66095;SDS011;53861;53.422;14.530;2023-03-14T07:15:15;6.68;;;2.03;;
66095;SDS011;53861;53.422;14.530;2023-03-14T07:17:43;6.20;;;2.22;;
66095;SDS011;53861;53.422;14.530;2023-03-14T07:20:12;7.40;;;3.50;;
66095;SDS011;53861;53.422;14.530;2023-03-14T07:22:39;4.53;;;1.80;;
66095;SDS011;53861;53.422;14.530;2023-03-14T07:25:07;5.40;;;2.40;;
66095;SDS011;53861;53.422;14.530;2023-03-14T07:27:37;5.78;;;2.30;;
66095;SDS011;53861;53.422;14.530;2023-03-14T07:30:05;5.70;;;2.42;;
66095;SDS011;53861;53.422;14.530;2023-03-14T07:32:33;7.57;;;3.05;;
66095;SDS011;53861;53.422;14.530;2023-03-14T07:35:00;7.55;;;2.55;;
66095;SDS011;53861;53.422;14.530;2023-03-14T07:37:28;7.57;;;3.10;;
66095;SDS011;53861;53.422;14.530;2023-03-14T07:39:56;8.63;;;2.70;;
66095;SDS011;53861;53.422;14.530;2023-03-14T07:42:23;9.02;;;3.05;;
66095;SDS011;53861;53.422;14.530;2023-03-14T07:44:50;7.03;;;2.50;;
66095;SDS011;53861;53.422;14.530;2023-03-14T07:47:17;5.80;;;2.30;;
66095;SDS011;53861;53.422;14.530;2023-03-14T07:49:45;7.95;;;2.80;;
66095;SDS011;53861;53.422;14.530;2023-03-14T07:52:12;6.63;;;2.28;;
66095;SDS011;53861;53.422;14.530;2023-03-14T07:54:41;7.90;;;2.25;;
66095;SDS011;53861;53.422;14.530;2023-03-14T07:57:08;7.68;;;2.78;;
66095;SDS011;53861;53.422;14.530;2023-03-14T07:59:35;7.18;;;2.50;;
66095;SDS011;53861;53.422;14.530;2023-03-14T08:02:03;5.15;;;2.03;;
66095;SDS011;53861;53.422;14.530;2023-03-14T08:04:31;9.35;;;2.17;;
66095;SDS011;53861;53.422;14.530;2023-03-14T08:06:59;6.05;;;2.03;;
66095;SDS011;53861;53.422;14.530;2023-03-14T08:09:27;6.47;;;2.22;;
66095;SDS011;53861;53.422;14.530;2023-03-14T08:11:55;6.07;;;1.92;;
66095;SDS011;53861;53.422;14.530;2023-03-14T08:14:23;6.47;;;2.20;;
66095;SDS011;53861;53.422;14.530;2023-03-14T08:16:50;6.97;;;2.53;;
66095;SDS011;53861;53.422;14.530;2023-03-14T08:19:18;6.28;;;2.13;;
66095;SDS011;53861;53.422;14.530;2023-03-14T08:21:45;9.00;;;1.90;;
66095;SDS011;53861;53.422;14.530;2023-03-14T08:24:12;6.40;;;2.20;;
66095;SDS011;53861;53.422;14.530;2023-03-14T08:26:40;6.10;;;1.95;;
66095;SDS011;53861;53.422;14.530;2023-03-14T08:29:08;5.85;;;2.15;;
66095;SDS011;53861;53.422;14.530;2023-03-14T08:31:35;4.22;;;1.77;;
66095;SDS011;53861;53.422;14.530;2023-03-14T08:34:03;6.03;;;1.75;;
66095;SDS011;53861;53.422;14.530;2023-03-14T08:36:32;6.18;;;1.83;;
66095;SDS011;53861;53.422;14.530;2023-03-14T08:38:59;5.97;;;1.60;;
66095;SDS011;53861;53.422;14.530;2023-03-14T08:41:27;6.22;;;1.67;;
66095;SDS011;53861;53.422;14.530;2023-03-14T08:43:54;3.30;;;1.42;;
66095;SDS011;53861;53.422;14.530;2023-03-14T08:46:23;7.22;;;1.67;;
66095;SDS011;53861;53.422;14.530;2023-03-14T08:48:50;7.28;;;1.77;;
66095;SDS011;53861;53.422;14.530;2023-03-14T08:51:17;4.03;;;1.38;;
66095;SDS011;53861;53.422;14.530;2023-03-14T08:53:45;6.25;;;1.85;;
66095;SDS011;53861;53.422;14.530;2023-03-14T08:56:12;7.75;;;1.60;;
66095;SDS011;53861;53.422;14.530;2023-03-14T08:58:39;11.27;;;1.60;;
66095;SDS011;53861;53.422;14.530;2023-03-14T09:01:07;4.28;;;1.42;;
66095;SDS011;53861;53.422;14.530;2023-03-14T09:03:37;9.80;;;1.30;;
66095;SDS011;53861;53.422;14.530;2023-03-14T09:06:05;8.25;;;1.65;;
66095;SDS011;53861;53.422;14.530;2023-03-14T09:08:34;4.30;;;1.40;;
66095;SDS011;53861;53.422;14.530;2023-03-14T09:11:02;5.28;;;1.50;;
66095;SDS011;53861;53.422;14.530;2023-03-14T09:13:29;7.57;;;1.50;;
66095;SDS011;53861;53.422;14.530;2023-03-14T09:15:56;7.07;;;1.45;;
66095;SDS011;53861;53.422;14.530;2023-03-14T09:18:24;10.00;;;1.60;;
66095;SDS011;53861;53.422;14.530;2023-03-14T09:20:53;6.20;;;1.42;;
66095;SDS011;53861;53.422;14.530;2023-03-14T09:23:20;5.40;;;1.50;;
66095;SDS011;53861;53.422;14.530;2023-03-14T09:25:47;4.10;;;1.17;;
66095;SDS011;53861;53.422;14.530;2023-03-14T09:28:14;6.57;;;1.33;;
66095;SDS011;53861;53.422;14.530;2023-03-14T09:30:42;4.75;;;1.30;;
66095;SDS011;53861;53.422;14.530;2023-03-14T09:33:09;7.45;;;1.20;;
66095;SDS011;53861;53.422;14.530;2023-03-14T09:35:36;19.73;;;2.60;;
66095;SDS011;53861;53.422;14.530;2023-03-14T09:38:05;11.18;;;1.33;;
66095;SDS011;53861;53.422;14.530;2023-03-14T09:40:33;5.80;;;1.20;;
66095;SDS011;53861;53.422;14.530;2023-03-14T09:43:02;2.78;;;0.82;;
66095;SDS011;53861;53.422;14.530;2023-03-14T09:45:31;9.02;;;1.00;;
66095;SDS011;53861;53.422;14.530;2023-03-14T09:48:01;7.32;;;1.13;;
66095;SDS011;53861;53.422;14.530;2023-03-14T09:50:31;9.68;;;1.23;;
66095;SDS011;53861;53.422;14.530;2023-03-14T09:53:04;8.02;;;1.50;;
66095;SDS011;53861;53.422;14.530;2023-03-14T09:55:36;5.88;;;1.10;;
66095;SDS011;53861;53.422;14.530;2023-03-14T09:58:04;8.32;;;1.40;;
66095;SDS011;53861;53.422;14.530;2023-03-14T10:00:37;3.58;;;1.10;;
66095;SDS011;53861;53.422;14.530;2023-03-14T10:03:18;2.10;;;0.80;;
66095;SDS011;53861;53.422;14.530;2023-03-14T10:05:56;3.03;;;1.00;;
66095;SDS011;53861;53.422;14.530;2023-03-14T10:08:25;4.28;;;1.02;;
66095;SDS011;53861;53.422;14.530;2023-03-14T10:10:52;5.18;;;1.05;;
66095;SDS011;53861;53.422;14.530;2023-03-14T10:13:20;2.75;;;0.90;;
66095;SDS011;53861;53.422;14.530;2023-03-14T10:15:51;3.30;;;0.90;;
66095;SDS011;53861;53.422;14.530;2023-03-14T10:18:22;6.10;;;1.10;;
66095;SDS011;53861;53.422;14.530;2023-03-14T10:21:01;4.85;;;0.90;;
66095;SDS011;53861;53.422;14.530;2023-03-14T10:23:33;5.25;;;1.05;;
66095;SDS011;53861;53.422;14.530;2023-03-14T10:26:03;7.55;;;0.93;;
66095;SDS011;53861;53.422;14.530;2023-03-14T10:28:34;2.83;;;0.77;;
66095;SDS011;53861;53.422;14.530;2023-03-14T10:31:05;2.75;;;0.80;;
66095;SDS011;53861;53.422;14.530;2023-03-14T10:33:33;2.78;;;0.90;;
66095;SDS011;53861;53.422;14.530;2023-03-14T10:36:03;2.67;;;0.75;;
66095;SDS011;53861;53.422;14.530;2023-03-14T10:38:35;3.60;;;0.80;;
66095;SDS011;53861;53.422;14.530;2023-03-14T10:41:14;7.45;;;1.00;;
66095;SDS011;53861;53.422;14.530;2023-03-14T10:43:43;4.38;;;0.77;;
66095;SDS011;53861;53.422;14.530;2023-03-14T10:46:12;4.20;;;0.90;;
66095;SDS011;53861;53.422;14.530;2023-03-14T10:48:42;3.50;;;0.80;;
66095;SDS011;53861;53.422;14.530;2023-03-14T10:51:11;3.28;;;0.82;;
66095;SDS011;53861;53.422;14.530;2023-03-14T10:53:48;4.25;;;1.15;;
66095;SDS011;53861;53.422;14.530;2023-03-14T10:56:23;3.28;;;0.85;;
66095;SDS011;53861;53.422;14.530;2023-03-14T10:58:52;3.15;;;0.75;;
66095;SDS011;53861;53.422;14.530;2023-03-14T11:01:28;3.58;;;0.90;;
66095;SDS011;53861;53.422;14.530;2023-03-14T11:04:12;3.50;;;0.90;;
66095;SDS011;53861;53.422;14.530;2023-03-14T11:06:46;4.05;;;0.90;;
66095;SDS011;53861;53.422;14.530;2023-03-14T11:11:50;6.63;;;1.00;;
66095;SDS011;53861;53.422;14.530;2023-03-14T11:14:23;5.25;;;1.33;;
66095;SDS011;53861;53.422;14.530;2023-03-14T11:16:59;3.22;;;0.90;;
66095;SDS011;53861;53.422;14.530;2023-03-14T11:19:38;6.18;;;1.23;;
66095;SDS011;53861;53.422;14.530;2023-03-14T11:22:32;4.88;;;0.93;;
66095;SDS011;53861;53.422;14.530;2023-03-14T11:25:10;5.20;;;1.00;;
66095;SDS011;53861;53.422;14.530;2023-03-14T11:27:55;4.88;;;0.82;;
66095;SDS011;53861;53.422;14.530;2023-03-14T11:30:31;10.50;;;1.65;;
66095;SDS011;53861;53.422;14.530;2023-03-14T11:33:03;2.10;;;0.90;;
66095;SDS011;53861;53.422;14.530;2023-03-14T11:35:41;2.92;;;1.10;;
66095;SDS011;53861;53.422;14.530;2023-03-14T11:38:16;4.22;;;1.00;;
66095;SDS011;53861;53.422;14.530;2023-03-14T11:40:54;4.30;;;1.02;;
66095;SDS011;53861;53.422;14.530;2023-03-14T11:43:25;3.70;;;1.33;;
66095;SDS011;53861;53.422;14.530;2023-03-14T11:45:56;3.17;;;0.95;;
66095;SDS011;53861;53.422;14.530;2023-03-14T11:48:33;9.73;;;3.03;;
66095;SDS011;53861;53.422;14.530;2023-03-14T11:51:10;3.78;;;1.67;;
66095;SDS011;53861;53.422;14.530;2023-03-14T11:53:47;3.75;;;1.60;;
66095;SDS011;53861;53.422;14.530;2023-03-14T11:56:24;10.73;;;1.90;;
66095;SDS011;53861;53.422;14.530;2023-03-14T11:58:57;3.40;;;1.27;;
66095;SDS011;53861;53.422;14.530;2023-03-14T12:01:31;4.53;;;1.33;;
66095;SDS011;53861;53.422;14.530;2023-03-14T12:04:09;4.80;;;0.90;;
66095;SDS011;53861;53.422;14.530;2023-03-14T12:06:44;4.38;;;1.13;;
66095;SDS011;53861;53.422;14.530;2023-03-14T12:09:15;4.75;;;1.33;;
66095;SDS011;53861;53.422;14.530;2023-03-14T12:11:47;6.20;;;1.50;;
66095;SDS011;53861;53.422;14.530;2023-03-14T12:14:19;3.63;;;1.13;;
66095;SDS011;53861;53.422;14.530;2023-03-14T12:16:52;7.50;;;1.30;;
66095;SDS011;53861;53.422;14.530;2023-03-14T12:19:26;5.75;;;1.35;;
66095;SDS011;53861;53.422;14.530;2023-03-14T12:22:06;5.32;;;1.20;;
66095;SDS011;53861;53.422;14.530;2023-03-14T12:27:13;3.70;;;1.10;;
66095;SDS011;53861;53.422;14.530;2023-03-14T12:30:14;3.05;;;0.90;;
66095;SDS011;53861;53.422;14.530;2023-03-14T12:39:00;2.60;;;0.80;;
66095;SDS011;53861;53.422;14.530;2023-03-14T12:41:38;5.18;;;1.38;;
66095;SDS011;53861;53.422;14.530;2023-03-14T12:50:13;3.13;;;1.00;;
66095;SDS011;53861;53.422;14.530;2023-03-14T12:55:18;1.45;;;0.60;;
66095;SDS011;53861;53.422;14.530;2023-03-14T12:57:50;5.93;;;1.42;;
66095;SDS011;53861;53.422;14.530;2023-03-14T13:00:29;5.43;;;1.40;;
66095;SDS011;53861;53.422;14.530;2023-03-14T13:03:00;4.70;;;1.10;;
66095;SDS011;53861;53.422;14.530;2023-03-14T13:05:50;5.30;;;1.60;;
66095;SDS011;53861;53.422;14.530;2023-03-14T13:08:32;2.85;;;0.93;;
66095;SDS011;53861;53.422;14.530;2023-03-14T13:11:01;2.80;;;1.10;;
66095;SDS011;53861;53.422;14.530;2023-03-14T13:13:30;6.25;;;1.38;;
66095;SDS011;53861;53.422;14.530;2023-03-14T13:16:02;4.25;;;1.05;;
66095;SDS011;53861;53.422;14.530;2023-03-14T13:18:33;6.20;;;1.50;;
66095;SDS011;53861;53.422;14.530;2023-03-14T13:21:03;4.63;;;1.90;;
66095;SDS011;53861;53.422;14.530;2023-03-14T13:23:34;7.72;;;1.30;;
66095;SDS011;53861;53.422;14.530;2023-03-14T13:26:06;4.22;;;1.40;;
66095;SDS011;53861;53.422;14.530;2023-03-14T13:28:39;8.52;;;1.60;;
66095;SDS011;53861;53.422;14.530;2023-03-14T13:31:18;5.78;;;1.40;;
66095;SDS011;53861;53.422;14.530;2023-03-14T13:33:56;4.72;;;1.23;;
66095;SDS011;53861;53.422;14.530;2023-03-14T13:36:27;4.65;;;1.63;;
66095;SDS011;53861;53.422;14.530;2023-03-14T13:38:55;6.13;;;2.15;;
66095;SDS011;53861;53.422;14.530;2023-03-14T13:41:23;5.43;;;1.85;;
66095;SDS011;53861;53.422;14.530;2023-03-14T13:43:51;6.32;;;1.70;;
66095;SDS011;53861;53.422;14.530;2023-03-14T13:46:21;6.25;;;2.03;;
66095;SDS011;53861;53.422;14.530;2023-03-14T13:48:52;9.48;;;1.95;;
66095;SDS011;53861;53.422;14.530;2023-03-14T13:51:24;5.88;;;1.80;;
66095;SDS011;53861;53.422;14.530;2023-03-14T13:53:57;6.32;;;2.10;;
66095;SDS011;53861;53.422;14.530;2023-03-14T13:56:25;5.75;;;1.85;;
66095;SDS011;53861;53.422;14.530;2023-03-14T13:58:54;6.82;;;2.53;;
66095;SDS011;53861;53.422;14.530;2023-03-14T14:01:23;5.25;;;2.38;;
66095;SDS011;53861;53.422;14.530;2023-03-14T14:03:53;6.35;;;2.30;;
66095;SDS011;53861;53.422;14.530;2023-03-14T14:06:26;5.22;;;1.70;;
66095;SDS011;53861;53.422;14.530;2023-03-14T14:08:56;6.20;;;1.83;;
66095;SDS011;53861;53.422;14.530;2023-03-14T14:11:35;5.82;;;2.03;;
66095;SDS011;53861;53.422;14.530;2023-03-14T14:14:11;5.20;;;1.58;;
66095;SDS011;53861;53.422;14.530;2023-03-14T14:16:43;4.18;;;1.75;;
66095;SDS011;53861;53.422;14.530;2023-03-14T14:19:12;9.10;;;1.80;;
66095;SDS011;53861;53.422;14.530;2023-03-14T14:21:41;4.65;;;1.70;;
66095;SDS011;53861;53.422;14.530;2023-03-14T14:24:09;5.93;;;1.80;;
66095;SDS011;53861;53.422;14.530;2023-03-14T14:26:46;10.32;;;1.80;;
66095;SDS011;53861;53.422;14.530;2023-03-14T14:29:21;4.18;;;1.58;;
66095;SDS011;53861;53.422;14.530;2023-03-14T14:32:01;5.35;;;1.27;;
66095;SDS011;53861;53.422;14.530;2023-03-14T14:34:30;5.70;;;2.10;;
66095;SDS011;53861;53.422;14.530;2023-03-14T14:37:13;4.85;;;1.80;;
66095;SDS011;53861;53.422;14.530;2023-03-14T14:39:45;4.07;;;1.73;;
66095;SDS011;53861;53.422;14.530;2023-03-14T14:42:13;4.93;;;1.70;;
66095;SDS011;53861;53.422;14.530;2023-03-14T14:44:42;6.07;;;1.85;;
66095;SDS011;53861;53.422;14.530;2023-03-14T14:47:13;6.93;;;1.90;;
66095;SDS011;53861;53.422;14.530;2023-03-14T14:49:43;3.45;;;1.40;;
66095;SDS011;53861;53.422;14.530;2023-03-14T14:52:12;6.30;;;2.75;;
66095;SDS011;53861;53.422;14.530;2023-03-14T14:54:43;8.23;;;2.30;;
66095;SDS011;53861;53.422;14.530;2023-03-14T14:57:16;4.88;;;2.20;;
66095;SDS011;53861;53.422;14.530;2023-03-14T14:59:47;4.75;;;1.90;;
66095;SDS011;53861;53.422;14.530;2023-03-14T15:02:32;4.95;;;1.75;;
66095;SDS011;53861;53.422;14.530;2023-03-14T15:05:07;6.88;;;2.00;;
66095;SDS011;53861;53.422;14.530;2023-03-14T15:07:41;6.07;;;2.20;;
66095;SDS011;53861;53.422;14.530;2023-03-14T15:10:10;4.43;;;1.80;;
66095;SDS011;53861;53.422;14.530;2023-03-14T15:12:38;5.70;;;1.95;;